KABI/ABI METAR and TAF weather

Enter ICAO airport designator
Station Type Date Time Source
KABI METAR 2021/01/17 18:52 UTC NOAA

KABI 171852Z 05005KT 10SM CLR 13/M02 A3015 RMK AO2 SLP206 T01281022


Station Type Date Time Source
KABI Decoded METAR 2021/01/17 18:52 UTC NOAA

ABILENE REGIONAL AIRPORT, TX, United States (KABI) 32-25N 099-41W 548M
Jan 17, 2021 - 01:52 PM EST / 2021.01.17 1852 UTC
Wind: from the NE (050 degrees) at 6 MPH (5 KT):0
Visibility: 10 mile(s):0
Sky conditions: clear
Temperature: 55.0 F (12.8 C)
Dew Point: 28.0 F (-2.2 C)
Relative Humidity: 35%
Pressure (altimeter): 30.15 in. Hg (1020 hPa)
ob: KABI 171852Z 05005KT 10SM CLR 13/M02 A3015 RMK AO2 SLP206 T01281022
cycle: 19

Station Type Date Time Source
KABI TAF 2021/01/17 18:54 UTC NOAA

TAF KABI 171751Z 1718/1818 36007KT P6SM SCT250
FM180100 17007KT P6SM SKC
FM181400 19015G23KT P6SM FEW250

Example: see airport list